Time;durP1;ratioP1;P1;durP2;ratioP2;P2;SDS_P1;SDS_P2;PMS_P1;PMS_P2;Temp;Humidity;BMP_temperature;BMP_pressure;BME280_temperature;BME280_humidity;BME280_pressure;Samples;Min_cycle;Max_cycle;Signal;HPM_P1;HPM_P2
2021/09/11 00:00:23;;;;;;;14.45;10.18;;;;;;;17.29;64.81;101108.55;1731177;82;21032;-89
2021/09/11 00:02:52;;;;;;;15.10;9.23;;;;;;;17.29;64.96;101111.21;1731549;82;21276;-90
2021/09/11 00:05:18;;;;;;;14.68;9.48;;;;;;;17.27;65.06;101108.98;1731431;82;21059;-90
2021/09/11 00:07:45;;;;;;;21.25;15.80;;;;;;;17.31;65.13;101104.57;1732036;82;21068;-91
2021/09/11 00:10:13;;;;;;;20.77;13.18;;;;;;;17.29;65.20;101103.23;1732355;82;21059;-91
2021/09/11 00:12:40;;;;;;;18.62;13.00;;;;;;;17.26;65.27;101113.40;1731720;82;21107;-92
2021/09/11 00:15:09;;;;;;;18.07;10.95;;;;;;;17.27;65.37;101111.66;1731649;82;21909;-91
2021/09/11 00:17:36;;;;;;;20.75;12.07;;;;;;;17.27;65.46;101111.20;1731905;82;21000;-91
2021/09/11 00:20:03;;;;;;;23.15;11.12;;;;;;;17.27;65.53;101111.20;1732068;82;21020;-91
2021/09/11 00:22:30;;;;;;;18.52;10.95;;;;;;;17.28;65.65;101110.30;1731942;82;21012;-90
2021/09/11 00:24:56;;;;;;;15.90;10.78;;;;;;;17.31;65.74;101105.45;1732047;82;21076;-91
2021/09/11 00:27:23;;;;;;;21.00;10.98;;;;;;;17.33;65.83;101098.81;1732326;82;21740;-91
2021/09/11 00:29:50;;;;;;;14.75;10.35;;;;;;;17.35;65.86;101102.36;1731914;82;21035;-91
2021/09/11 00:32:16;;;;;;;16.50;11.30;;;;;;;17.36;65.90;101102.78;1732072;82;21004;-91
2021/09/11 00:34:43;;;;;;;20.43;11.50;;;;;;;17.36;65.97;101105.03;1731830;82;21095;-90
2021/09/11 00:37:10;;;;;;;17.17;10.70;;;;;;;17.36;66.00;101115.67;1731965;82;21004;-90
2021/09/11 00:39:37;;;;;;;15.85;11.48;;;;;;;17.34;66.07;101113.42;1731736;82;21944;-82
2021/09/11 00:42:04;;;;;;;17.07;11.30;;;;;;;17.32;66.07;101108.98;1731078;82;21079;-91
2021/09/11 00:44:30;;;;;;;17.15;11.68;;;;;;;17.28;66.16;101106.31;1731768;82;21041;-91
2021/09/11 00:46:57;;;;;;;20.35;11.20;;;;;;;17.22;66.18;101103.64;1731978;82;21538;-89
2021/09/11 00:49:24;;;;;;;20.50;12.07;;;;;;;17.16;66.31;101104.95;1731901;82;21029;-91
2021/09/11 00:51:50;;;;;;;15.68;11.18;;;;;;;17.11;66.43;101105.38;1731881;82;21820;-90
2021/09/11 00:54:17;;;;;;;17.55;12.85;;;;;;;17.06;66.51;101100.47;1731789;82;21022;-90
2021/09/11 00:56:44;;;;;;;22.77;15.78;;;;;;;17.02;66.63;101096.02;1735541;82;21576;-90
2021/09/11 00:59:10;;;;;;;19.40;13.40;;;;;;;16.99;66.72;101098.69;1745340;82;21103;-90
2021/09/11 01:01:37;;;;;;;25.08;12.45;;;;;;;16.93;66.75;101091.58;1744112;82;21186;-82
2021/09/11 01:04:04;;;;;;;18.40;11.75;;;;;;;16.87;66.85;101101.75;1744317;82;21775;-81
2021/09/11 01:06:31;;;;;;;16.65;12.68;;;;;;;16.83;66.94;101107.02;1744282;82;21078;-82
2021/09/11 01:08:58;;;;;;;14.98;12.03;;;;;;;16.76;67.07;101106.50;1744336;82;21102;-83
2021/09/11 01:11:25;;;;;;;13.80;11.33;;;;;;;16.69;67.25;101102.94;1744516;82;21086;-84
2021/09/11 01:13:51;;;;;;;18.65;11.12;;;;;;;16.64;67.31;101104.22;1744414;82;21028;-83
2021/09/11 01:16:18;;;;;;;16.20;11.93;;;;;;;16.59;67.51;101104.66;1744626;82;22578;-82
2021/09/11 01:18:45;;;;;;;17.10;11.70;;;;;;;16.56;67.53;101104.63;1744478;82;21055;-83
2021/09/11 01:21:12;;;;;;;20.08;12.33;;;;;;;16.52;67.59;101093.55;1744443;82;21078;-82
2021/09/11 01:23:41;;;;;;;12.98;10.95;;;;;;;16.50;67.71;101099.29;1744488;82;21047;-82
2021/09/11 01:26:08;;;;;;;19.25;12.73;;;;;;;16.47;67.75;101097.93;1744449;82;21098;-82
2021/09/11 01:28:34;;;;;;;17.00;12.35;;;;;;;16.44;67.77;101100.55;1744431;82;22569;-81
2021/09/11 01:31:01;;;;;;;18.90;12.30;;;;;;;16.38;67.88;101094.77;1744365;82;21046;-90
2021/09/11 01:33:28;;;;;;;19.48;11.88;;;;;;;16.36;68.02;101107.16;1745159;82;21075;-90
2021/09/11 01:35:55;;;;;;;16.15;12.23;;;;;;;16.34;68.14;101106.25;1745364;82;21038;-90
2021/09/11 01:38:21;;;;;;;19.52;12.43;;;;;;;16.32;68.20;101106.69;1745444;82;21121;-90
2021/09/11 01:40:48;;;;;;;17.10;12.23;;;;;;;16.30;68.30;101109.33;1745912;82;21712;-90
2021/09/11 01:43:15;;;;;;;15.78;11.83;;;;;;;16.29;68.46;101106.23;1745867;82;21552;-89
2021/09/11 01:45:42;;;;;;;19.75;12.68;;;;;;;16.29;68.53;101109.31;1746044;82;21533;-90
2021/09/11 01:48:08;;;;;;;20.62;13.35;;;;;;;16.27;68.60;101105.34;1745823;82;21091;-91
2021/09/11 01:50:35;;;;;;;15.72;12.03;;;;;;;16.27;68.71;101109.73;1746294;82;21552;-89
2021/09/11 01:53:02;;;;;;;22.70;12.60;;;;;;;16.27;68.89;101104.02;1745949;82;21761;-93
2021/09/11 01:55:28;;;;;;;17.20;13.10;;;;;;;16.29;68.96;101107.98;1745875;82;21506;-93
2021/09/11 01:57:55;;;;;;;18.70;12.53;;;;;;;16.29;69.03;101108.89;1745769;82;21078;-90
2021/09/11 02:00:22;;;;;;;19.48;12.40;;;;;;;16.28;69.05;101107.55;1745968;82;21000;-90
2021/09/11 02:02:49;;;;;;;20.97;13.62;;;;;;;16.27;69.17;101109.33;1745786;82;21110;-89
2021/09/11 02:05:15;;;;;;;16.77;12.58;;;;;;;16.26;69.19;101111.96;1746011;82;21865;-91
2021/09/11 02:07:42;;;;;;;19.98;12.93;;;;;;;16.23;69.22;101116.79;1745692;82;21075;-91
2021/09/11 02:10:10;;;;;;;17.87;13.32;;;;;;;16.19;69.27;101118.10;1745805;82;21061;-83
2021/09/11 02:12:37;;;;;;;17.73;11.90;;;;;;;16.16;69.38;101112.75;1744608;82;21091;-82
2021/09/11 02:15:05;;;;;;;20.27;12.70;;;;;;;16.12;69.44;101112.75;1744569;82;21078;-82
2021/09/11 02:17:31;;;;;;;18.50;12.98;;;;;;;16.09;69.54;101114.48;1744825;82;21770;-82
2021/09/11 02:19:58;;;;;;;19.73;12.65;;;;;;;16.06;69.60;101114.00;1744574;82;21091;-82
2021/09/11 02:22:25;;;;;;;18.48;13.58;;;;;;;16.03;69.69;101107.36;1769800;81;21055;-90
2021/09/11 02:24:51;;;;;;;21.33;12.33;;;;;;;16.02;69.76;101112.20;1811118;79;21733;-90
2021/09/11 02:27:18;;;;;;;16.90;12.63;;;;;;;15.99;69.85;101112.20;1811046;79;21047;-89
2021/09/11 02:29:45;;;;;;;17.52;13.93;;;;;;;15.98;69.86;101102.89;1811180;79;21741;-90
2021/09/11 02:32:11;;;;;;;23.05;15.35;;;;;;;15.94;69.93;101110.81;1810885;79;21089;-83
2021/09/11 02:34:38;;;;;;;25.70;15.10;;;;;;;15.90;70.01;101103.70;1809947;79;21023;-83
2021/09/11 02:37:05;;;;;;;17.55;15.10;;;;;;;15.87;70.02;101106.32;1809864;79;21038;-83
2021/09/11 02:39:32;;;;;;;18.23;13.88;;;;;;;15.84;70.13;101103.66;1810011;79;21062;-84
2021/09/11 02:41:58;;;;;;;19.80;14.83;;;;;;;15.82;70.23;101101.84;1810130;79;22539;-83
2021/09/11 02:44:25;;;;;;;21.85;15.38;;;;;;;15.80;70.26;101107.58;1810295;79;20965;-90
2021/09/11 02:46:52;;;;;;;23.20;15.15;;;;;;;15.79;70.32;101105.82;1811001;79;21046;-90
2021/09/11 02:49:18;;;;;;;19.17;15.15;;;;;;;15.76;70.33;101107.11;1811121;79;21509;-90
2021/09/11 02:51:45;;;;;;;21.40;14.83;;;;;;;15.74;70.40;101109.74;1811216;79;20999;-89
2021/09/11 02:54:12;;;;;;;19.85;13.13;;;;;;;15.72;70.45;101107.03;1811110;79;21833;-90
2021/09/11 02:56:38;;;;;;;19.45;14.25;;;;;;;15.70;70.50;101107.91;1811184;79;21003;-89
2021/09/11 02:59:05;;;;;;;17.10;14.43;;;;;;;15.68;70.54;101109.21;1811102;79;21489;-89
2021/09/11 03:01:32;;;;;;;19.98;14.58;;;;;;;15.66;70.60;101111.41;1811225;79;21023;-89
2021/09/11 03:03:58;;;;;;;22.42;14.30;;;;;;;15.65;70.73;101109.17;1810955;79;21054;-90
2021/09/11 03:06:25;;;;;;;17.52;14.38;;;;;;;15.64;70.76;101110.06;1811157;79;21743;-90
2021/09/11 03:08:52;;;;;;;22.42;14.90;;;;;;;15.63;70.84;101108.72;1811058;79;21034;-90
2021/09/11 03:11:18;;;;;;;16.25;13.80;;;;;;;15.63;70.98;101112.25;1810840;79;21560;-83
2021/09/11 03:13:45;;;;;;;21.45;14.45;;;;;;;15.62;70.97;101110.94;1810226;79;21030;-84
2021/09/11 03:16:12;;;;;;;19.98;14.58;;;;;;;15.60;71.04;101104.69;1810068;79;21011;-83
2021/09/11 03:18:38;;;;;;;23.00;15.10;;;;;;;15.60;71.05;101110.00;1809838;79;21744;-83
2021/09/11 03:21:05;;;;;;;22.40;15.08;;;;;;;15.58;71.12;101114.41;1809947;79;21062;-90
2021/09/11 03:23:31;;;;;;;19.00;14.40;;;;;;;15.55;71.19;101112.63;1810882;79;21085;-92
2021/09/11 03:25:58;;;;;;;19.15;13.53;;;;;;;15.52;71.23;101109.92;1811310;79;20995;-92
2021/09/11 03:28:27;;;;;;;17.32;14.07;;;;;;;15.49;71.34;101110.80;1811169;79;21062;-91
2021/09/11 03:30:54;;;;;;;17.15;14.10;;;;;;;15.49;71.34;101112.56;1810150;79;21725;-83
2021/09/11 03:33:20;;;;;;;20.52;14.65;;;;;;;15.47;71.41;101116.52;1809646;79;21026;-82
2021/09/11 03:35:47;;;;;;;20.40;14.78;;;;;;;15.46;71.51;101117.38;1809764;79;21075;-82
2021/09/11 03:38:14;;;;;;;18.02;14.98;;;;;;;15.45;71.55;101117.39;1809770;79;21015;-82
2021/09/11 03:40:40;;;;;;;17.27;14.05;;;;;;;15.42;71.53;101117.34;1810161;79;21047;-82
2021/09/11 03:43:07;;;;;;;20.30;14.40;;;;;;;15.38;71.62;101116.86;1810194;79;21734;-82
2021/09/11 03:45:34;;;;;;;23.27;14.63;;;;;;;15.36;71.69;101112.86;1810062;79;21134;-83
2021/09/11 03:48:00;;;;;;;21.82;14.63;;;;;;;15.35;71.78;101109.33;1810242;79;21219;-82
2021/09/11 03:50:28;;;;;;;17.85;14.35;;;;;;;15.34;71.81;101104.88;1810747;79;21449;-91
2021/09/11 03:52:54;;;;;;;15.85;13.78;;;;;;;15.33;71.86;101101.80;1811357;79;21011;-90
2021/09/11 03:55:21;;;;;;;16.85;14.28;;;;;;;15.33;71.94;101099.55;1811059;79;21648;-91
2021/09/11 03:57:48;;;;;;;18.37;13.58;;;;;;;15.32;72.01;101094.70;1805976;79;21050;-91
2021/09/11 04:00:14;;;;;;;18.98;13.75;;;;;;;15.32;71.99;101097.34;1794722;79;21082;-81
2021/09/11 04:02:41;;;;;;;18.98;13.75;;;;;;;15.30;72.06;101093.80;1794333;79;21525;-83
2021/09/11 04:05:09;;;;;;;19.45;14.23;;;;;;;15.31;72.18;101094.67;1794253;79;21070;-83
2021/09/11 04:07:36;;;;;;;15.80;12.43;;;;;;;15.32;72.26;101096.02;1794429;79;21763;-83
2021/09/11 04:10:03;;;;;;;16.60;13.88;;;;;;;15.32;72.26;101093.37;1794316;79;21035;-83
2021/09/11 04:12:30;;;;;;;21.70;13.62;;;;;;;15.33;72.26;101096.49;1794225;79;21118;-82
2021/09/11 04:14:57;;;;;;;17.15;12.75;;;;;;;15.34;72.34;101101.35;1794138;79;21592;-85
2021/09/11 04:17:23;;;;;;;19.57;13.83;;;;;;;15.38;72.45;101095.64;1794354;79;21044;-87
2021/09/11 04:19:50;;;;;;;26.25;13.53;;;;;;;15.39;72.49;101102.30;1794496;79;21840;-87
2021/09/11 04:22:17;;;;;;;30.27;13.72;;;;;;;15.42;72.48;101098.33;1794285;79;21043;-83
2021/09/11 04:24:44;;;;;;;23.60;14.18;;;;;;;15.46;72.52;101105.89;1794645;79;21096;-83
2021/09/11 04:27:11;;;;;;;24.18;13.13;;;;;;;15.51;72.55;101098.43;1794657;79;21082;-84
2021/09/11 04:29:37;;;;;;;20.02;12.58;;;;;;;15.58;72.55;101105.12;1794837;79;21016;-83
2021/09/11 04:32:05;;;;;;;24.92;13.35;;;;;;;15.63;72.57;101102.08;1794381;79;21932;-82
2021/09/11 04:34:31;;;;;;;16.45;13.00;;;;;;;15.69;72.56;101088.45;1794133;79;21082;-85
2021/09/11 04:36:58;;;;;;;24.25;13.85;;;;;;;15.77;72.55;101101.82;1794446;79;21094;-83
2021/09/11 04:39:25;;;;;;;19.23;13.50;;;;;;;15.90;72.64;101093.09;1794451;79;21145;-82
2021/09/11 04:41:52;;;;;;;21.55;13.25;;;;;;;16.26;73.03;101084.07;1794521;79;21118;-81
2021/09/11 04:44:18;;;;;;;22.60;13.95;;;;;;;16.73;72.88;101090.56;1794490;79;21777;-82
2021/09/11 04:46:45;;;;;;;19.12;13.93;;;;;;;17.22;72.53;101090.34;1794402;79;21094;-82
2021/09/11 04:49:12;;;;;;;19.20;11.73;;;;;;;17.78;72.20;101087.80;1794506;79;21071;-82
2021/09/11 04:51:38;;;;;;;21.73;13.72;;;;;;;18.38;71.53;101094.46;1794494;79;21046;-82
2021/09/11 04:54:06;;;;;;;19.25;13.05;;;;;;;18.86;70.52;101104.56;1794406;79;21059;-82
2021/09/11 04:56:32;;;;;;;35.48;13.30;;;;;;;19.29;70.04;101090.16;1794314;79;21225;-82
2021/09/11 04:58:59;;;;;;;26.70;12.65;;;;;;;19.84;69.63;101095.18;1804108;79;21532;-81
2021/09/11 05:01:26;;;;;;;25.12;13.60;;;;;;;20.36;68.85;101093.38;1809545;79;20983;-81
2021/09/11 05:03:52;;;;;;;22.25;12.82;;;;;;;20.65;68.01;101094.89;1809883;78;21402;-81
2021/09/11 05:06:19;;;;;;;34.43;13.53;;;;;;;20.73;66.95;101100.15;1809936;79;21035;-81
2021/09/11 05:08:46;;;;;;;20.50;12.07;;;;;;;20.62;66.12;101094.03;1809785;79;21754;-81
2021/09/11 05:11:13;;;;;;;24.75;13.13;;;;;;;20.48;66.01;101091.48;1810358;79;21671;-88
2021/09/11 05:13:39;;;;;;;19.50;12.28;;;;;;;20.41;65.97;101096.00;1810679;79;21015;-89
2021/09/11 05:16:06;;;;;;;26.12;12.33;;;;;;;20.36;65.88;101090.71;1810672;79;21042;-89
2021/09/11 05:18:33;;;;;;;17.05;12.70;;;;;;;20.27;65.77;101091.23;1810758;79;21038;-89
2021/09/11 05:21:05;;;;;;;20.65;12.45;;;;;;;20.24;65.87;101097.96;1810668;79;21730;-82
2021/09/11 05:23:32;;;;;;;22.05;11.75;;;;;;;20.17;65.87;101101.13;1809899;79;20983;-81
2021/09/11 05:26:00;;;;;;;17.37;11.12;;;;;;;20.17;65.97;101102.00;1809961;79;21057;-81
2021/09/11 05:28:27;;;;;;;14.28;11.20;;;;;;;20.15;65.88;101097.58;1810095;79;21489;-89
2021/09/11 05:30:54;;;;;;;14.78;10.82;;;;;;;20.14;65.94;101098.04;1810192;79;21055;-90
2021/09/11 05:33:20;;;;;;;16.70;11.28;;;;;;;20.13;66.05;101102.94;1810143;79;21782;-88
2021/09/11 05:35:47;;;;;;;13.40;12.00;;;;;;;20.18;66.12;101094.44;1810545;79;21050;-88
2021/09/11 05:38:14;;;;;;;12.93;11.25;;;;;;;20.18;66.07;101098.44;1810747;79;21054;-87
2021/09/11 05:40:40;;;;;;;18.55;12.53;;;;;;;20.18;66.07;101104.25;1810915;79;21012;-87
2021/09/11 05:43:07;;;;;;;18.20;11.70;;;;;;;20.18;66.10;101098.91;1810794;79;21565;-89
2021/09/11 05:45:34;;;;;;;19.60;13.55;;;;;;;20.20;66.12;101101.11;1810797;79;21851;-87
2021/09/11 05:48:00;;;;;;;16.35;12.53;;;;;;;20.22;66.01;101099.30;1810730;79;21308;-83
2021/09/11 05:50:27;;;;;;;13.10;11.70;;;;;;;20.19;65.85;101096.64;1810259;79;21528;-87
2021/09/11 05:52:54;;;;;;;20.75;13.00;;;;;;;20.15;65.79;101094.45;1810106;79;21050;-87
2021/09/11 05:55:20;;;;;;;17.65;12.63;;;;;;;20.17;65.77;101096.66;1810210;79;21603;-89
2021/09/11 05:57:47;;;;;;;17.60;13.08;;;;;;;20.20;65.82;101095.30;1810226;78;22552;-87
2021/09/11 06:00:14;;;;;;;20.65;13.10;;;;;;;20.27;65.80;101092.14;1810232;79;21019;-86
2021/09/11 06:02:41;;;;;;;15.83;12.82;;;;;;;20.33;65.81;101092.52;1796864;79;21592;-85
2021/09/11 06:05:08;;;;;;;15.55;12.55;;;;;;;20.38;65.78;101087.99;1819670;78;21080;-87
2021/09/11 06:07:35;;;;;;;18.57;12.75;;;;;;;20.45;65.86;101092.84;1819884;78;21549;-90
2021/09/11 06:10:01;;;;;;;20.17;12.50;;;;;;;20.50;65.96;101094.57;1820329;78;22398;-88
2021/09/11 06:12:28;;;;;;;15.20;13.13;;;;;;;20.62;66.04;101089.56;1819723;78;21038;-88
2021/09/11 06:14:55;;;;;;;19.45;12.90;;;;;;;20.72;65.89;101091.25;1820010;78;21065;-87
2021/09/11 06:17:21;;;;;;;19.27;11.78;;;;;;;20.79;65.69;101088.03;1820202;78;21005;-89
2021/09/11 06:19:48;;;;;;;28.25;14.95;;;;;;;20.87;65.60;101083.92;1820554;78;21025;-92
2021/09/11 06:22:15;;;;;;;22.70;13.25;;;;;;;20.94;65.54;101084.28;1820750;78;21732;-91
2021/09/11 06:24:41;;;;;;;20.27;12.75;;;;;;;21.01;65.41;101083.77;1820581;78;21533;-85
2021/09/11 06:27:08;;;;;;;19.17;13.70;;;;;;;21.04;65.28;101087.30;1819817;78;21095;-88
2021/09/11 06:29:36;;;;;;;17.23;11.95;;;;;;;21.07;65.19;101094.38;1789869;78;21107;-92
2021/09/11 06:32:03;;;;;;;16.48;12.23;;;;;;;21.14;65.22;101088.93;1805318;78;21009;-82
2021/09/11 06:34:30;;;;;;;15.68;12.23;;;;;;;21.22;65.18;101098.19;1803231;78;22377;-85
2021/09/11 06:36:57;;;;;;;16.55;11.33;;;;;;;21.29;65.14;101097.67;1809441;78;21021;-83
2021/09/11 06:39:25;;;;;;;15.88;12.15;;;;;;;21.35;65.09;101098.45;1816589;77;21132;-84
2021/09/11 06:41:52;;;;;;;18.80;12.28;;;;;;;21.45;65.15;101098.36;1812620;78;21505;-83
2021/09/11 06:44:19;;;;;;;16.87;12.28;;;;;;;21.51;64.96;101100.51;1803780;79;20997;-84
2021/09/11 06:46:45;;;;;;;17.70;12.33;;;;;;;21.56;64.91;101104.44;1803876;79;21736;-83
2021/09/11 06:49:12;;;;;;;21.30;12.35;;;;;;;21.59;64.94;101098.17;1810139;79;21054;-82
2021/09/11 06:51:39;;;;;;;23.85;12.68;;;;;;;21.67;64.98;101097.59;1741432;82;20982;-83
2021/09/11 06:54:06;;;;;;;18.35;12.40;;;;;;;21.74;64.88;101096.59;1792964;78;21622;-83
2021/09/11 06:56:32;;;;;;;15.90;12.07;;;;;;;21.82;64.82;101103.16;1814002;78;21570;-82
2021/09/11 06:58:59;;;;;;;19.45;12.80;;;;;;;21.88;64.82;101100.38;1793379;78;21740;-84
2021/09/11 07:01:26;;;;;;;16.87;12.18;;;;;;;21.96;64.65;101101.16;1804092;79;21067;-83
2021/09/11 07:03:53;;;;;;;16.12;11.68;;;;;;;21.99;64.50;101098.88;1800628;79;21019;-83
2021/09/11 07:06:19;;;;;;;19.45;12.60;;;;;;;22.05;64.57;101102.78;1800807;79;20983;-83
2021/09/11 07:08:49;;;;;;;15.88;13.35;;;;;;;22.11;64.39;101111.62;1801341;79;20994;-90
2021/09/11 07:11:16;;;;;;;22.32;14.53;;;;;;;22.16;64.31;101113.33;1801893;79;21748;-88
2021/09/11 07:13:49;;;;;;;21.50;14.50;;;;;;;22.17;64.23;101104.36;1801519;79;21513;-90
2021/09/11 07:16:16;;;;;;;21.17;13.80;;;;;;;22.20;64.25;101106.53;1801617;79;21062;-84
2021/09/11 07:18:42;;;;;;;21.85;13.30;;;;;;;22.26;64.26;101109.59;1801072;79;21038;-86
2021/09/11 07:21:09;;;;;;;22.65;13.18;;;;;;;22.32;64.26;101108.17;1801275;79;21590;-87
2021/09/11 07:23:36;;;;;;;15.98;13.48;;;;;;;22.38;64.31;101110.73;1801361;79;22598;-84
2021/09/11 07:26:02;;;;;;;18.55;13.18;;;;;;;22.48;64.55;101110.09;1801138;79;21055;-84
2021/09/11 07:28:31;;;;;;;18.90;13.08;;;;;;;22.60;64.69;101107.20;1800422;79;21548;-86
2021/09/11 07:30:57;;;;;;;21.95;12.35;;;;;;;22.69;64.55;101109.70;1801746;79;21043;-89
2021/09/11 07:33:24;;;;;;;16.02;11.85;;;;;;;22.80;64.61;101111.28;1801554;79;21125;-86
2021/09/11 07:35:51;;;;;;;18.98;12.25;;;;;;;22.88;64.61;101110.22;1801954;79;22711;-90
2021/09/11 07:38:17;;;;;;;30.52;13.58;;;;;;;22.97;64.50;101103.75;1801561;79;20995;-90
2021/09/11 07:40:44;;;;;;;14.93;12.50;;;;;;;23.05;64.46;101106.34;1802270;79;21051;-90
2021/09/11 07:43:11;;;;;;;18.07;12.43;;;;;;;23.14;64.41;101106.12;1802437;79;21031;-90
2021/09/11 07:45:38;;;;;;;22.32;13.48;;;;;;;23.23;64.46;101110.41;1802274;79;21023;-91
2021/09/11 07:48:06;;;;;;;16.73;12.93;;;;;;;23.38;64.12;101109.20;1802135;79;21745;-91
2021/09/11 07:50:35;;;;;;;22.80;13.62;;;;;;;23.38;64.12;101109.20;1802271;79;20984;-91
2021/09/11 07:53:03;;;;;;;18.70;13.95;;;;;;;23.41;63.77;101109.14;1802268;79;21016;-91
2021/09/11 07:55:31;;;;;;;22.07;13.60;;;;;;;23.42;63.86;101110.42;1801907;79;21556;-86
2021/09/11 07:57:57;;;;;;;17.80;12.55;;;;;;;23.48;63.84;101109.39;1801529;79;21019;-86
2021/09/11 08:00:25;;;;;;;18.05;13.08;;;;;;;23.57;63.75;101115.03;1801087;79;22546;-86
2021/09/11 08:02:52;;;;;;;16.15;13.65;;;;;;;23.64;63.77;101115.31;1800986;79;21038;-84
2021/09/11 08:05:19;;;;;;;17.50;13.70;;;;;;;23.72;63.75;101114.66;1801433;79;21129;-85
2021/09/11 08:07:45;;;;;;;15.70;12.55;;;;;;;23.81;63.54;101114.48;1801976;79;21034;-90
2021/09/11 08:10:13;;;;;;;17.92;13.75;;;;;;;23.92;63.71;101116.91;1774598;79;21054;-85
2021/09/11 08:12:39;;;;;;;16.37;13.78;;;;;;;24.02;63.49;101118.44;1801367;79;22568;-84
2021/09/11 08:15:08;;;;;;;26.27;14.13;;;;;;;24.08;63.27;101118.74;1801214;79;20980;-85
2021/09/11 08:17:34;;;;;;;19.92;12.58;;;;;;;24.16;63.38;101125.30;1801304;79;21038;-86
2021/09/11 08:20:02;;;;;;;14.10;11.80;;;;;;;24.27;63.55;101119.19;1801125;79;21030;-86
2021/09/11 08:22:28;;;;;;;14.58;11.93;;;;;;;24.40;63.63;101117.02;1801253;79;21316;-86
2021/09/11 08:24:56;;;;;;;16.65;11.63;;;;;;;24.54;63.52;101118.05;1801320;79;21735;-86
2021/09/11 08:27:24;;;;;;;14.30;10.28;;;;;;;24.64;63.38;101119.11;1801456;79;21011;-86
2021/09/11 08:29:51;;;;;;;17.90;10.30;;;;;;;24.71;62.75;101117.12;1801408;79;21552;-86
2021/09/11 08:32:17;;;;;;;15.25;11.57;;;;;;;24.78;62.83;101123.23;1801447;79;21039;-86
2021/09/11 08:34:44;;;;;;;12.33;9.80;;;;;;;24.83;62.58;101122.17;1801564;79;21067;-87
2021/09/11 08:37:11;;;;;;;13.18;9.13;;;;;;;24.87;62.15;101127.45;1801274;79;21797;-87
2021/09/11 08:39:38;;;;;;;12.55;9.33;;;;;;;24.89;61.93;101123.80;1801554;79;21050;-87
2021/09/11 08:42:05;;;;;;;20.92;10.60;;;;;;;24.94;61.83;101124.53;1801525;79;21064;-85
2021/09/11 08:44:31;;;;;;;19.30;9.95;;;;;;;25.00;61.68;101119.43;1801372;79;21082;-86
2021/09/11 08:46:58;;;;;;;13.03;9.85;;;;;;;25.05;61.67;101116.15;1801454;79;21051;-84
2021/09/11 08:49:25;;;;;;;10.08;8.98;;;;;;;25.12;61.40;101116.86;1801490;79;22983;-85
2021/09/11 08:51:52;;;;;;;19.65;10.13;;;;;;;25.16;61.34;101116.71;1800867;79;21049;-85
2021/09/11 08:54:19;;;;;;;14.65;8.28;;;;;;;25.21;61.16;101108.52;1800596;79;21141;-85
2021/09/11 08:56:47;;;;;;;13.18;8.98;;;;;;;25.27;61.13;101108.34;1801523;79;21043;-89
2021/09/11 08:59:18;;;;;;;29.55;9.75;;;;;;;25.35;61.05;101113.50;1801856;79;21086;-89
2021/09/11 09:02:06;;;;;;;10.82;9.08;;;;;;;25.43;60.90;101106.52;1801986;79;22038;-89
2021/09/11 09:04:56;;;;;;;21.87;10.03;;;;;;;25.48;60.80;101104.58;1801976;79;21520;-89
2021/09/11 09:07:32;;;;;;;11.43;8.78;;;;;;;25.52;60.56;101107.58;1802432;79;21556;-90
2021/09/11 09:10:08;;;;;;;9.83;8.18;;;;;;;25.58;60.24;101114.12;1797636;79;21761;-90
2021/09/11 09:12:37;;;;;;;8.78;7.87;;;;;;;25.60;59.93;101115.86;1802974;79;21003;-91
2021/09/11 09:15:10;;;;;;;9.90;7.60;;;;;;;25.64;59.76;101110.34;1802667;79;21887;-90
2021/09/11 09:17:43;;;;;;;11.10;7.95;;;;;;;25.69;59.69;101103.00;1802375;79;21066;-90
2021/09/11 09:20:13;;;;;;;11.18;8.53;;;;;;;25.75;59.75;101109.09;1802430;79;21070;-91
2021/09/11 09:22:40;;;;;;;13.60;7.62;;;;;;;25.82;59.55;101111.10;1802290;79;21012;-91
2021/09/11 09:25:23;;;;;;;10.63;8.30;;;;;;;25.86;59.08;101110.06;1802180;79;21016;-91
2021/09/11 09:27:53;;;;;;;11.20;7.47;;;;;;;25.88;58.92;101105.97;1796674;79;21747;-91
2021/09/11 09:30:22;;;;;;;9.78;8.55;;;;;;;25.92;58.85;101109.02;1802231;79;21015;-91
2021/09/11 09:32:49;;;;;;;9.30;8.23;;;;;;;25.98;58.81;101106.13;1802141;79;21077;-86
2021/09/11 09:35:22;;;;;;;11.75;8.85;;;;;;;26.07;58.65;101117.97;1801303;79;21078;-85
2021/09/11 09:37:59;;;;;;;12.82;7.50;;;;;;;26.13;58.46;101112.83;1801223;79;21058;-86
2021/09/11 09:40:52;;;;;;;25.55;12.00;;;;;;;26.19;58.32;101111.26;1801378;79;22598;-85
2021/09/11 09:43:43;;;;;;;12.25;9.20;;;;;;;26.28;58.42;101112.30;1801136;79;21198;-86
2021/09/11 09:46:19;;;;;;;11.30;7.83;;;;;;;26.37;58.20;101101.63;1801329;79;21027;-85
2021/09/11 09:48:46;;;;;;;15.95;8.90;;;;;;;26.43;57.87;101100.08;1801318;79;21011;-85
2021/09/11 09:51:16;;;;;;;22.02;10.18;;;;;;;26.51;57.80;101107.42;1801351;79;21619;-86
2021/09/11 09:53:46;;;;;;;17.37;11.40;;;;;;;26.57;57.38;101103.14;1801225;79;21373;-86
2021/09/11 09:56:13;;;;;;;15.65;9.35;;;;;;;26.63;57.10;101093.10;1801297;79;21567;-86
2021/09/11 09:58:40;;;;;;;8.40;7.42;;;;;;;26.69;56.87;101100.53;1801463;79;21023;-86
2021/09/11 10:01:06;;;;;;;9.95;7.15;;;;;;;26.76;56.66;101095.28;1801057;78;21007;-87
2021/09/11 10:03:33;;;;;;;10.43;9.35;;;;;;;26.84;56.45;101093.68;1801501;79;20988;-85
2021/09/11 10:06:28;;;;;;;9.68;7.60;;;;;;;26.99;56.46;101088.61;1801860;79;21749;-89
2021/09/11 10:09:06;;;;;;;15.55;8.08;;;;;;;27.17;56.42;101087.04;1801821;79;21074;-85
2021/09/11 10:11:35;;;;;;;12.05;7.97;;;;;;;27.45;55.79;101087.73;1801635;79;21058;-87
2021/09/11 10:14:10;;;;;;;8.33;7.35;;;;;;;27.81;55.72;101087.17;1801775;79;21047;-86
2021/09/11 10:16:39;;;;;;;13.38;8.53;;;;;;;28.11;55.44;101074.67;1801655;79;21038;-87
2021/09/11 10:19:22;;;;;;;13.70;8.43;;;;;;;28.44;55.02;101081.80;1801798;79;21748;-86
2021/09/11 10:21:51;;;;;;;12.70;8.93;;;;;;;28.65;54.46;101081.34;1801786;79;21027;-90
2021/09/11 10:24:25;;;;;;;12.07;9.15;;;;;;;28.85;53.93;101083.59;1800785;79;21023;-84
2021/09/11 10:27:02;;;;;;;13.28;8.20;;;;;;;28.99;53.71;101082.97;1801494;79;21074;-84
2021/09/11 10:29:43;;;;;;;8.83;7.92;;;;;;;29.11;53.29;101083.73;1801465;79;21030;-85
2021/09/11 10:32:19;;;;;;;16.20;8.45;;;;;;;29.14;52.95;101077.34;1801479;79;21833;-87
2021/09/11 10:34:57;;;;;;;8.88;7.55;;;;;;;29.18;52.66;101081.17;1801298;79;21003;-86
2021/09/11 10:37:28;;;;;;;12.80;8.83;;;;;;;29.30;52.40;101074.31;1801137;79;21520;-84
2021/09/11 10:40:36;;;;;;;10.98;8.18;;;;;;;29.41;52.36;101072.41;1800818;79;20984;-84
2021/09/11 10:43:21;;;;;;;11.33;8.28;;;;;;;29.57;52.07;101069.35;1801196;79;21085;-82
2021/09/11 10:46:02;;;;;;;13.93;9.25;;;;;;;29.78;51.80;101070.63;1799602;79;21751;-86
2021/09/11 10:48:44;;;;;;;10.43;9.03;;;;;;;29.86;51.35;101068.39;1775198;79;21039;-84
2021/09/11 10:51:25;;;;;;;9.58;8.23;;;;;;;29.90;51.19;101063.23;1801212;79;21113;-86
2021/09/11 10:54:23;;;;;;;11.45;7.78;;;;;;;29.93;50.71;101054.05;1800963;79;21112;-83
2021/09/11 10:56:59;;;;;;;11.30;9.78;;;;;;;29.88;50.45;101054.27;1801068;79;21623;-85
2021/09/11 10:59:35;;;;;;;18.10;11.55;;;;;;;29.80;50.46;101051.95;1801145;78;21814;-83
2021/09/11 11:02:32;;;;;;;12.00;9.30;;;;;;;29.72;50.28;101037.87;1801318;79;21007;-83
2021/09/11 11:05:06;;;;;;;12.30;9.83;;;;;;;29.65;50.54;101038.64;1778841;79;21022;-83
2021/09/11 11:07:34;;;;;;;10.60;9.50;;;;;;;29.77;50.55;101033.58;1801615;79;21105;-82
2021/09/11 11:10:06;;;;;;;10.05;8.58;;;;;;;29.97;50.42;101031.22;1801926;79;21034;-86
2021/09/11 11:12:37;;;;;;;11.17;10.07;;;;;;;30.22;50.34;101034.41;1802366;79;21742;-85
2021/09/11 11:15:10;;;;;;;16.00;13.13;;;;;;;30.45;50.11;101030.11;1802001;79;21013;-85
2021/09/11 11:17:44;;;;;;;11.43;8.20;;;;;;;30.68;49.91;101029.72;1802185;79;20984;-86